sensor_id;sensor_type;location;lat;lon;timestamp;pressure;altitude;pressure_sealevel;temperature;humidity
17054;BME280;8643;48.824;11.422;2023-01-15T00:02:16;95986.38;;;7.74;100.00
17054;BME280;8643;48.824;11.422;2023-01-15T00:04:45;95983.66;;;7.74;100.00
17054;BME280;8643;48.824;11.422;2023-01-15T00:07:14;95982.66;;;7.58;100.00
17054;BME280;8643;48.824;11.422;2023-01-15T00:09:43;95978.69;;;7.55;100.00
17054;BME280;8643;48.824;11.422;2023-01-15T00:12:11;95968.81;;;7.50;100.00
17054;BME280;8643;48.824;11.422;2023-01-15T00:14:40;95965.59;;;7.69;100.00
17054;BME280;8643;48.824;11.422;2023-01-15T00:17:08;95968.31;;;7.69;100.00
17054;BME280;8643;48.824;11.422;2023-01-15T00:19:37;95963.25;;;7.59;100.00
17054;BME280;8643;48.824;11.422;2023-01-15T00:22:07;95963.59;;;7.58;100.00
17054;BME280;8643;48.824;11.422;2023-01-15T00:24:35;95962.81;;;7.57;100.00
17054;BME280;8643;48.824;11.422;2023-01-15T00:27:22;95955.91;;;7.60;100.00
17054;BME280;8643;48.824;11.422;2023-01-15T00:30:13;95945.22;;;7.55;100.00
17054;BME280;8643;48.824;11.422;2023-01-15T00:32:43;95948.91;;;7.38;100.00
17054;BME280;8643;48.824;11.422;2023-01-15T00:35:13;95947.34;;;7.49;100.00
17054;BME280;8643;48.824;11.422;2023-01-15T00:37:43;95952.00;;;7.48;100.00
17054;BME280;8643;48.824;11.422;2023-01-15T00:40:12;95951.78;;;7.53;100.00
17054;BME280;8643;48.824;11.422;2023-01-15T00:42:42;95948.34;;;7.44;100.00
17054;BME280;8643;48.824;11.422;2023-01-15T00:45:21;95947.22;;;7.45;100.00
17054;BME280;8643;48.824;11.422;2023-01-15T00:47:50;95949.91;;;7.33;100.00
17054;BME280;8643;48.824;11.422;2023-01-15T00:50:20;95945.25;;;7.33;100.00
17054;BME280;8643;48.824;11.422;2023-01-15T00:52:50;95940.75;;;7.16;100.00
17054;BME280;8643;48.824;11.422;2023-01-15T00:55:20;95930.31;;;7.19;100.00
17054;BME280;8643;48.824;11.422;2023-01-15T00:57:48;95920.50;;;7.26;100.00
17054;BME280;8643;48.824;11.422;2023-01-15T01:00:17;95910.16;;;7.20;100.00
17054;BME280;8643;48.824;11.422;2023-01-15T01:02:46;95910.44;;;7.06;100.00
17054;BME280;8643;48.824;11.422;2023-01-15T01:05:15;95916.41;;;6.99;100.00
17054;BME280;8643;48.824;11.422;2023-01-15T01:07:43;95908.06;;;7.04;100.00
17054;BME280;8643;48.824;11.422;2023-01-15T01:10:15;95902.53;;;6.92;100.00
17054;BME280;8643;48.824;11.422;2023-01-15T01:12:43;95907.13;;;6.79;100.00
17054;BME280;8643;48.824;11.422;2023-01-15T01:15:14;95906.06;;;6.71;100.00
17054;BME280;8643;48.824;11.422;2023-01-15T01:17:43;95909.13;;;6.70;100.00
17054;BME280;8643;48.824;11.422;2023-01-15T01:20:13;95908.66;;;6.68;100.00
17054;BME280;8643;48.824;11.422;2023-01-15T01:22:42;95906.00;;;6.59;100.00
17054;BME280;8643;48.824;11.422;2023-01-15T01:25:11;95900.91;;;6.57;100.00
17054;BME280;8643;48.824;11.422;2023-01-15T01:27:43;95898.97;;;6.58;100.00
17054;BME280;8643;48.824;11.422;2023-01-15T01:30:13;95891.47;;;6.55;100.00
17054;BME280;8643;48.824;11.422;2023-01-15T01:32:44;95882.59;;;6.46;100.00
17054;BME280;8643;48.824;11.422;2023-01-15T01:35:13;95893.06;;;6.56;100.00
17054;BME280;8643;48.824;11.422;2023-01-15T01:37:41;95888.81;;;6.67;100.00
17054;BME280;8643;48.824;11.422;2023-01-15T01:40:11;95871.97;;;6.74;100.00
17054;BME280;8643;48.824;11.422;2023-01-15T01:42:41;95878.06;;;6.71;100.00
17054;BME280;8643;48.824;11.422;2023-01-15T01:45:21;95873.28;;;6.68;100.00
17054;BME280;8643;48.824;11.422;2023-01-15T01:47:53;95879.38;;;6.65;100.00
17054;BME280;8643;48.824;11.422;2023-01-15T01:50:24;95871.50;;;6.51;100.00
17054;BME280;8643;48.824;11.422;2023-01-15T01:53:00;95875.41;;;6.41;100.00
17054;BME280;8643;48.824;11.422;2023-01-15T01:55:33;95868.50;;;6.43;100.00
17054;BME280;8643;48.824;11.422;2023-01-15T01:58:05;95870.63;;;6.38;100.00
17054;BME280;8643;48.824;11.422;2023-01-15T02:00:39;95864.66;;;6.23;100.00
17054;BME280;8643;48.824;11.422;2023-01-15T02:03:09;95865.69;;;6.10;100.00
17054;BME280;8643;48.824;11.422;2023-01-15T02:05:45;95856.91;;;6.04;100.00
17054;BME280;8643;48.824;11.422;2023-01-15T02:08:14;95852.75;;;6.07;100.00
17054;BME280;8643;48.824;11.422;2023-01-15T02:10:43;95853.63;;;5.99;100.00
17054;BME280;8643;48.824;11.422;2023-01-15T02:13:19;95850.72;;;5.95;100.00
17054;BME280;8643;48.824;11.422;2023-01-15T02:15:57;95851.34;;;6.01;100.00
17054;BME280;8643;48.824;11.422;2023-01-15T02:18:39;95845.56;;;6.11;100.00
17054;BME280;8643;48.824;11.422;2023-01-15T02:21:23;95847.13;;;6.12;100.00
17054;BME280;8643;48.824;11.422;2023-01-15T02:24:08;95838.31;;;6.15;100.00
17054;BME280;8643;48.824;11.422;2023-01-15T02:26:56;95834.81;;;6.15;100.00
17054;BME280;8643;48.824;11.422;2023-01-15T02:29:39;95828.72;;;6.18;100.00
17054;BME280;8643;48.824;11.422;2023-01-15T02:32:12;95818.75;;;6.22;100.00
17054;BME280;8643;48.824;11.422;2023-01-15T02:34:47;95824.50;;;6.29;100.00
17054;BME280;8643;48.824;11.422;2023-01-15T02:37:24;95817.44;;;6.28;100.00
17054;BME280;8643;48.824;11.422;2023-01-15T02:39:57;95814.31;;;6.17;100.00
17054;BME280;8643;48.824;11.422;2023-01-15T02:42:32;95816.00;;;6.10;100.00
17054;BME280;8643;48.824;11.422;2023-01-15T02:45:07;95818.41;;;6.02;100.00
17054;BME280;8643;48.824;11.422;2023-01-15T02:47:42;95809.50;;;5.93;100.00
17054;BME280;8643;48.824;11.422;2023-01-15T02:50:16;95815.59;;;5.90;100.00
17054;BME280;8643;48.824;11.422;2023-01-15T02:52:53;95808.75;;;5.84;100.00
17054;BME280;8643;48.824;11.422;2023-01-15T02:55:34;95799.06;;;5.74;100.00
17054;BME280;8643;48.824;11.422;2023-01-15T02:58:10;95793.66;;;5.65;100.00
17054;BME280;8643;48.824;11.422;2023-01-15T03:00:48;95792.47;;;5.54;100.00
17054;BME280;8643;48.824;11.422;2023-01-15T03:03:25;95785.31;;;5.41;100.00
17054;BME280;8643;48.824;11.422;2023-01-15T03:06:04;95790.47;;;5.33;100.00
17054;BME280;8643;48.824;11.422;2023-01-15T03:08:36;95779.34;;;5.26;100.00
17054;BME280;8643;48.824;11.422;2023-01-15T03:11:09;95784.13;;;5.21;100.00
17054;BME280;8643;48.824;11.422;2023-01-15T03:13:47;95774.06;;;5.21;100.00
17054;BME280;8643;48.824;11.422;2023-01-15T03:16:26;95767.72;;;5.17;100.00
17054;BME280;8643;48.824;11.422;2023-01-15T03:19:19;95771.72;;;5.11;100.00
17054;BME280;8643;48.824;11.422;2023-01-15T03:21:58;95759.44;;;5.13;100.00
17054;BME280;8643;48.824;11.422;2023-01-15T03:24:31;95764.69;;;5.10;100.00
17054;BME280;8643;48.824;11.422;2023-01-15T03:27:02;95766.28;;;5.11;100.00
17054;BME280;8643;48.824;11.422;2023-01-15T03:29:38;95768.06;;;5.07;100.00
17054;BME280;8643;48.824;11.422;2023-01-15T03:32:07;95751.81;;;5.07;100.00
17054;BME280;8643;48.824;11.422;2023-01-15T03:34:42;95747.03;;;5.04;100.00
17054;BME280;8643;48.824;11.422;2023-01-15T03:37:16;95740.78;;;5.03;100.00
17054;BME280;8643;48.824;11.422;2023-01-15T03:39:45;95735.84;;;5.05;100.00
17054;BME280;8643;48.824;11.422;2023-01-15T03:42:36;95740.59;;;5.08;100.00
17054;BME280;8643;48.824;11.422;2023-01-15T03:45:18;95732.28;;;5.13;100.00
17054;BME280;8643;48.824;11.422;2023-01-15T03:48:01;95731.47;;;5.13;100.00
17054;BME280;8643;48.824;11.422;2023-01-15T03:50:42;95728.56;;;5.18;100.00
17054;BME280;8643;48.824;11.422;2023-01-15T03:53:17;95728.13;;;5.16;100.00
17054;BME280;8643;48.824;11.422;2023-01-15T03:55:56;95724.94;;;5.14;100.00
17054;BME280;8643;48.824;11.422;2023-01-15T03:58:38;95717.59;;;5.14;100.00
17054;BME280;8643;48.824;11.422;2023-01-15T04:01:17;95716.81;;;5.14;100.00
17054;BME280;8643;48.824;11.422;2023-01-15T04:03:50;95721.13;;;5.15;100.00
17054;BME280;8643;48.824;11.422;2023-01-15T04:06:24;95716.00;;;5.13;100.00
17054;BME280;8643;48.824;11.422;2023-01-15T04:08:55;95711.03;;;5.16;100.00
17054;BME280;8643;48.824;11.422;2023-01-15T04:11:26;95712.66;;;5.17;100.00
17054;BME280;8643;48.824;11.422;2023-01-15T04:14:02;95716.28;;;5.21;100.00
17054;BME280;8643;48.824;11.422;2023-01-15T04:16:42;95720.94;;;5.20;100.00
17054;BME280;8643;48.824;11.422;2023-01-15T04:19:12;95707.81;;;5.22;100.00
17054;BME280;8643;48.824;11.422;2023-01-15T04:21:54;95704.78;;;5.24;100.00
17054;BME280;8643;48.824;11.422;2023-01-15T04:24:23;95703.66;;;5.25;100.00
17054;BME280;8643;48.824;11.422;2023-01-15T04:26:52;95709.56;;;5.27;100.00
17054;BME280;8643;48.824;11.422;2023-01-15T04:29:21;95713.38;;;5.26;100.00
17054;BME280;8643;48.824;11.422;2023-01-15T04:31:51;95703.19;;;5.23;100.00
17054;BME280;8643;48.824;11.422;2023-01-15T04:34:25;95696.63;;;5.24;100.00
17054;BME280;8643;48.824;11.422;2023-01-15T04:36:54;95691.53;;;5.22;100.00
17054;BME280;8643;48.824;11.422;2023-01-15T04:39:23;95694.72;;;5.24;100.00
17054;BME280;8643;48.824;11.422;2023-01-15T04:41:51;95704.59;;;5.29;100.00
17054;BME280;8643;48.824;11.422;2023-01-15T04:44:38;95703.47;;;5.30;100.00
17054;BME280;8643;48.824;11.422;2023-01-15T04:47:08;95697.91;;;5.26;100.00
17054;BME280;8643;48.824;11.422;2023-01-15T04:49:36;95695.84;;;5.23;100.00
17054;BME280;8643;48.824;11.422;2023-01-15T04:52:05;95691.53;;;5.22;100.00
17054;BME280;8643;48.824;11.422;2023-01-15T04:54:33;95694.25;;;5.22;100.00
17054;BME280;8643;48.824;11.422;2023-01-15T04:57:02;95691.53;;;5.22;100.00
17054;BME280;8643;48.824;11.422;2023-01-15T04:59:30;95689.28;;;5.24;100.00
17054;BME280;8643;48.824;11.422;2023-01-15T05:01:59;95689.94;;;5.21;100.00
17054;BME280;8643;48.824;11.422;2023-01-15T05:04:34;95689.16;;;5.21;100.00
17054;BME280;8643;48.824;11.422;2023-01-15T05:07:04;95686.75;;;5.19;100.00
17054;BME280;8643;48.824;11.422;2023-01-15T05:09:33;95679.91;;;5.22;100.00
17054;BME280;8643;48.824;11.422;2023-01-15T05:12:02;95669.38;;;5.20;100.00
17054;BME280;8643;48.824;11.422;2023-01-15T05:14:30;95660.41;;;5.20;100.00
17054;BME280;8643;48.824;11.422;2023-01-15T05:16:59;95655.31;;;5.18;100.00
17054;BME280;8643;48.824;11.422;2023-01-15T05:19:27;95657.84;;;5.23;100.00
17054;BME280;8643;48.824;11.422;2023-01-15T05:21:57;95643.81;;;5.21;100.00
17054;BME280;8643;48.824;11.422;2023-01-15T05:24:25;95631.38;;;5.20;100.00
17054;BME280;8643;48.824;11.422;2023-01-15T05:26:54;95644.13;;;5.20;100.00
17054;BME280;8643;48.824;11.422;2023-01-15T05:29:24;95632.47;;;5.19;100.00
17054;BME280;8643;48.824;11.422;2023-01-15T05:31:53;95634.75;;;5.17;100.00
17054;BME280;8643;48.824;11.422;2023-01-15T05:34:21;95623.22;;;5.20;100.00
17054;BME280;8643;48.824;11.422;2023-01-15T05:36:50;95621.16;;;5.17;100.00
17054;BME280;8643;48.824;11.422;2023-01-15T05:39:19;95624.34;;;5.19;100.00
17054;BME280;8643;48.824;11.422;2023-01-15T05:41:48;95615.22;;;5.24;100.00
17054;BME280;8643;48.824;11.422;2023-01-15T05:44:20;95607.22;;;5.27;100.00
17054;BME280;8643;48.824;11.422;2023-01-15T05:46:51;95614.25;;;5.49;100.00
17054;BME280;8643;48.824;11.422;2023-01-15T05:49:21;95620.44;;;6.13;100.00
17054;BME280;8643;48.824;11.422;2023-01-15T05:51:52;95625.28;;;6.66;100.00
17054;BME280;8643;48.824;11.422;2023-01-15T05:54:24;95621.56;;;6.70;100.00
17054;BME280;8643;48.824;11.422;2023-01-15T05:56:53;95629.53;;;6.88;100.00
17054;BME280;8643;48.824;11.422;2023-01-15T05:59:24;95621.44;;;7.04;100.00
17054;BME280;8643;48.824;11.422;2023-01-15T06:01:54;95624.16;;;7.16;100.00
17054;BME280;8643;48.824;11.422;2023-01-15T06:04:24;95635.84;;;7.29;100.00
17054;BME280;8643;48.824;11.422;2023-01-15T06:06:54;95623.34;;;7.28;100.00
17054;BME280;8643;48.824;11.422;2023-01-15T06:09:25;95644.25;;;7.24;100.00
17054;BME280;8643;48.824;11.422;2023-01-15T06:11:56;95637.31;;;7.26;100.00
17054;BME280;8643;48.824;11.422;2023-01-15T06:14:25;95639.69;;;7.40;100.00
17054;BME280;8643;48.824;11.422;2023-01-15T06:16:53;95636.00;;;7.61;100.00
17054;BME280;8643;48.824;11.422;2023-01-15T06:19:22;95622.13;;;7.78;100.00
17054;BME280;8643;48.824;11.422;2023-01-15T06:21:50;95618.78;;;7.85;100.00
17054;BME280;8643;48.824;11.422;2023-01-15T06:24:19;95614.44;;;7.96;100.00
17054;BME280;8643;48.824;11.422;2023-01-15T06:26:49;95614.41;;;8.24;100.00
17054;BME280;8643;48.824;11.422;2023-01-15T06:29:17;95613.47;;;8.33;100.00
17054;BME280;8643;48.824;11.422;2023-01-15T06:31:47;95624.72;;;8.59;100.00
17054;BME280;8643;48.824;11.422;2023-01-15T06:34:16;95614.44;;;8.69;100.00
17054;BME280;8643;48.824;11.422;2023-01-15T06:36:44;95608.59;;;8.86;100.00
17054;BME280;8643;48.824;11.422;2023-01-15T06:39:13;95615.94;;;8.82;100.00
17054;BME280;8643;48.824;11.422;2023-01-15T06:41:42;95620.06;;;8.92;100.00
17054;BME280;8643;48.824;11.422;2023-01-15T06:44:29;95608.34;;;8.75;100.00
17054;BME280;8643;48.824;11.422;2023-01-15T06:47:17;95601.66;;;8.89;100.00
17054;BME280;8643;48.824;11.422;2023-01-15T06:49:53;95604.31;;;8.85;100.00
17054;BME280;8643;48.824;11.422;2023-01-15T06:52:23;95606.16;;;8.81;100.00
17054;BME280;8643;48.824;11.422;2023-01-15T06:54:52;95593.16;;;9.26;100.00
17054;BME280;8643;48.824;11.422;2023-01-15T06:57:21;95591.81;;;9.35;100.00
17054;BME280;8643;48.824;11.422;2023-01-15T06:59:51;95592.00;;;9.27;100.00
17054;BME280;8643;48.824;11.422;2023-01-15T07:02:19;95587.81;;;9.49;100.00
17054;BME280;8643;48.824;11.422;2023-01-15T07:04:49;95612.34;;;9.65;100.00
17054;BME280;8643;48.824;11.422;2023-01-15T07:07:19;95589.56;;;9.77;100.00
17054;BME280;8643;48.824;11.422;2023-01-15T07:09:48;95550.09;;;9.78;100.00
17054;BME280;8643;48.824;11.422;2023-01-15T07:12:16;95576.16;;;9.52;100.00
17054;BME280;8643;48.824;11.422;2023-01-15T07:14:45;95579.56;;;9.65;100.00
17054;BME280;8643;48.824;11.422;2023-01-15T07:17:15;95626.91;;;9.53;100.00
17054;BME280;8643;48.824;11.422;2023-01-15T07:19:45;95572.44;;;9.80;100.00
17054;BME280;8643;48.824;11.422;2023-01-15T07:22:13;95581.19;;;9.69;100.00
17054;BME280;8643;48.824;11.422;2023-01-15T07:24:42;95560.78;;;9.63;100.00
17054;BME280;8643;48.824;11.422;2023-01-15T07:27:11;95563.88;;;9.62;100.00
17054;BME280;8643;48.824;11.422;2023-01-15T07:29:39;95561.66;;;9.32;100.00
17054;BME280;8643;48.824;11.422;2023-01-15T07:32:08;95558.91;;;9.67;100.00
17054;BME280;8643;48.824;11.422;2023-01-15T07:34:38;95560.31;;;9.61;100.00
17054;BME280;8643;48.824;11.422;2023-01-15T07:37:06;95551.84;;;9.47;100.00
17054;BME280;8643;48.824;11.422;2023-01-15T07:39:35;95567.88;;;9.48;100.00
17054;BME280;8643;48.824;11.422;2023-01-15T07:42:03;95557.16;;;9.40;100.00
17054;BME280;8643;48.824;11.422;2023-01-15T07:44:49;95566.63;;;9.26;100.00
17054;BME280;8643;48.824;11.422;2023-01-15T07:47:35;95559.31;;;9.50;100.00
17054;BME280;8643;48.824;11.422;2023-01-15T07:50:23;95573.78;;;9.70;100.00
17054;BME280;8643;48.824;11.422;2023-01-15T07:52:52;95565.78;;;9.61;100.00
17054;BME280;8643;48.824;11.422;2023-01-15T07:55:21;95568.78;;;9.36;100.00
17054;BME280;8643;48.824;11.422;2023-01-15T07:57:51;95574.50;;;9.47;100.00
17054;BME280;8643;48.824;11.422;2023-01-15T08:00:22;95579.72;;;9.36;100.00
17054;BME280;8643;48.824;11.422;2023-01-15T08:02:51;95575.44;;;9.55;100.00
17054;BME280;8643;48.824;11.422;2023-01-15T08:05:19;95577.72;;;9.53;100.00
17054;BME280;8643;48.824;11.422;2023-01-15T08:07:50;95573.22;;;9.80;100.00
17054;BME280;8643;48.824;11.422;2023-01-15T08:10:18;95564.06;;;9.72;100.00
17054;BME280;8643;48.824;11.422;2023-01-15T08:12:49;95565.25;;;9.91;100.00
17054;BME280;8643;48.824;11.422;2023-01-15T08:15:39;95578.09;;;9.71;100.00
17054;BME280;8643;48.824;11.422;2023-01-15T08:18:10;95577.31;;;9.51;100.00
17054;BME280;8643;48.824;11.422;2023-01-15T08:20:38;95590.38;;;9.61;100.00
17054;BME280;8643;48.824;11.422;2023-01-15T08:23:08;95573.56;;;9.79;100.00
17054;BME280;8643;48.824;11.422;2023-01-15T08:25:37;95578.91;;;9.71;100.00
17054;BME280;8643;48.824;11.422;2023-01-15T08:28:06;95588.84;;;9.80;100.00
17054;BME280;8643;48.824;11.422;2023-01-15T08:30:34;95583.13;;;9.69;100.00
17054;BME280;8643;48.824;11.422;2023-01-15T08:33:03;95585.63;;;9.58;100.00
17054;BME280;8643;48.824;11.422;2023-01-15T08:35:32;95591.50;;;9.57;100.00
17054;BME280;8643;48.824;11.422;2023-01-15T08:38:04;95582.47;;;9.56;100.00
17054;BME280;8643;48.824;11.422;2023-01-15T08:40:37;95612.38;;;9.49;100.00
17054;BME280;8643;48.824;11.422;2023-01-15T08:43:25;95611.53;;;9.29;100.00
17054;BME280;8643;48.824;11.422;2023-01-15T08:45:56;95637.56;;;8.75;100.00
17054;BME280;8643;48.824;11.422;2023-01-15T08:48:26;95642.28;;;8.18;100.00
17054;BME280;8643;48.824;11.422;2023-01-15T08:50:55;95651.75;;;7.80;100.00
17054;BME280;8643;48.824;11.422;2023-01-15T08:53:24;95663.59;;;7.59;100.00
17054;BME280;8643;48.824;11.422;2023-01-15T08:55:54;95661.59;;;7.44;100.00
17054;BME280;8643;48.824;11.422;2023-01-15T08:58:22;95667.25;;;7.39;100.00
17054;BME280;8643;48.824;11.422;2023-01-15T09:00:51;95677.34;;;7.38;100.00
17054;BME280;8643;48.824;11.422;2023-01-15T09:03:20;95684.28;;;7.36;100.00
17054;BME280;8643;48.824;11.422;2023-01-15T09:05:48;95684.75;;;7.25;100.00
17054;BME280;8643;48.824;11.422;2023-01-15T09:08:17;95693.47;;;7.06;100.00
17054;BME280;8643;48.824;11.422;2023-01-15T09:10:46;95694.47;;;6.89;100.00
17054;BME280;8643;48.824;11.422;2023-01-15T09:13:16;95701.13;;;6.79;100.00
17054;BME280;8643;48.824;11.422;2023-01-15T09:15:44;95709.72;;;6.69;100.00
17054;BME280;8643;48.824;11.422;2023-01-15T09:18:13;95709.38;;;6.58;100.00
17054;BME280;8643;48.824;11.422;2023-01-15T09:20:45;95728.69;;;6.45;100.00
17054;BME280;8643;48.824;11.422;2023-01-15T09:23:14;95737.00;;;6.27;100.00
17054;BME280;8643;48.824;11.422;2023-01-15T09:25:51;95748.97;;;6.14;100.00
17054;BME280;8643;48.824;11.422;2023-01-15T09:28:21;95753.84;;;5.99;100.00
17054;BME280;8643;48.824;11.422;2023-01-15T09:30:49;95748.13;;;5.92;100.00
17054;BME280;8643;48.824;11.422;2023-01-15T09:33:18;95759.84;;;5.84;100.00
17054;BME280;8643;48.824;11.422;2023-01-15T09:35:47;95767.25;;;5.75;100.00
17054;BME280;8643;48.824;11.422;2023-01-15T09:38:18;95785.34;;;5.71;100.00
17054;BME280;8643;48.824;11.422;2023-01-15T09:40:49;95776.91;;;5.63;100.00
17054;BME280;8643;48.824;11.422;2023-01-15T09:43:37;95780.94;;;5.57;100.00
17054;BME280;8643;48.824;11.422;2023-01-15T09:46:24;95807.28;;;5.57;100.00
17054;BME280;8643;48.824;11.422;2023-01-15T09:49:05;95807.66;;;5.46;100.00
17054;BME280;8643;48.824;11.422;2023-01-15T09:51:48;95816.31;;;5.40;100.00
17054;BME280;8643;48.824;11.422;2023-01-15T09:54:26;95841.25;;;5.33;100.00
17054;BME280;8643;48.824;11.422;2023-01-15T09:57:06;95848.78;;;5.27;100.00
17054;BME280;8643;48.824;11.422;2023-01-15T09:59:43;95839.84;;;5.27;100.00
17054;BME280;8643;48.824;11.422;2023-01-15T10:02:19;95858.38;;;5.25;100.00
17054;BME280;8643;48.824;11.422;2023-01-15T10:04:53;95865.06;;;5.27;100.00
17054;BME280;8643;48.824;11.422;2023-01-15T10:07:31;95867.47;;;5.20;100.00
17054;BME280;8643;48.824;11.422;2023-01-15T10:10:03;95866.66;;;5.20;100.00
17054;BME280;8643;48.824;11.422;2023-01-15T10:12:37;95872.91;;;5.20;100.00
17054;BME280;8643;48.824;11.422;2023-01-15T10:15:20;95872.75;;;5.08;100.00
17054;BME280;8643;48.824;11.422;2023-01-15T10:17:51;95866.53;;;4.99;100.00
17054;BME280;8643;48.824;11.422;2023-01-15T10:20:57;95871.81;;;4.95;100.00
17054;BME280;8643;48.824;11.422;2023-01-15T10:23:37;95869.44;;;4.93;100.00
17054;BME280;8643;48.824;11.422;2023-01-15T10:26:17;95878.38;;;4.94;100.00
17054;BME280;8643;48.824;11.422;2023-01-15T10:28:59;95871.66;;;5.00;100.00
17054;BME280;8643;48.824;11.422;2023-01-15T10:31:48;95890.97;;;4.99;100.00
17054;BME280;8643;48.824;11.422;2023-01-15T10:34:55;95913.63;;;4.85;100.00
17054;BME280;8643;48.824;11.422;2023-01-15T10:37:34;95899.28;;;4.85;100.00
17054;BME280;8643;48.824;11.422;2023-01-15T10:40:27;95904.22;;;4.74;100.00
17054;BME280;8643;48.824;11.422;2023-01-15T10:43:09;95917.94;;;4.69;100.00
17054;BME280;8643;48.824;11.422;2023-01-15T10:45:45;95916.03;;;4.61;100.00
17054;BME280;8643;48.824;11.422;2023-01-15T10:48:24;95912.84;;;4.67;100.00
17054;BME280;8643;48.824;11.422;2023-01-15T10:51:00;95912.84;;;4.67;100.00
17054;BME280;8643;48.824;11.422;2023-01-15T10:53:39;95903.56;;;4.59;100.00
17054;BME280;8643;48.824;11.422;2023-01-15T10:56:20;95914.41;;;4.59;100.00
17054;BME280;8643;48.824;11.422;2023-01-15T10:58:55;95915.41;;;4.55;100.00
17054;BME280;8643;48.824;11.422;2023-01-15T11:01:26;95924.00;;;4.48;100.00
17054;BME280;8643;48.824;11.422;2023-01-15T11:03:57;95905.66;;;4.54;100.00
17054;BME280;8643;48.824;11.422;2023-01-15T11:06:28;95897.19;;;4.64;100.00
17054;BME280;8643;48.824;11.422;2023-01-15T11:08:58;95916.81;;;4.52;100.00
17054;BME280;8643;48.824;11.422;2023-01-15T11:11:40;95918.28;;;4.50;100.00
17054;BME280;8643;48.824;11.422;2023-01-15T11:14:33;95913.28;;;4.43;100.00
17054;BME280;8643;48.824;11.422;2023-01-15T11:17:20;95920.78;;;4.46;100.00
17054;BME280;8643;48.824;11.422;2023-01-15T11:20:22;95940.09;;;4.45;100.00
17054;BME280;8643;48.824;11.422;2023-01-15T11:22:54;95932.63;;;4.50;100.00
17054;BME280;8643;48.824;11.422;2023-01-15T11:25:31;95918.59;;;4.57;100.00
17054;BME280;8643;48.824;11.422;2023-01-15T11:28:02;95928.78;;;4.69;100.00
17054;BME280;8643;48.824;11.422;2023-01-15T11:30:34;95932.94;;;4.84;100.00
17054;BME280;8643;48.824;11.422;2023-01-15T11:33:06;95931.50;;;4.69;100.00
17054;BME280;8643;48.824;11.422;2023-01-15T11:35:51;95921.13;;;4.71;100.00
17054;BME280;8643;48.824;11.422;2023-01-15T11:38:26;95924.50;;;4.76;100.00
17054;BME280;8643;48.824;11.422;2023-01-15T11:40:58;95931.53;;;4.77;100.00
17054;BME280;8643;48.824;11.422;2023-01-15T11:43:28;95934.53;;;4.85;100.00
17054;BME280;8643;48.824;11.422;2023-01-15T11:46:25;95929.59;;;5.04;100.00
17054;BME280;8643;48.824;11.422;2023-01-15T11:49:15;95936.94;;;5.04;100.00
17054;BME280;8643;48.824;11.422;2023-01-15T11:52:06;95934.22;;;5.12;100.00
17054;BME280;8643;48.824;11.422;2023-01-15T11:54:37;95940.59;;;5.25;100.00
17054;BME280;8643;48.824;11.422;2023-01-15T11:57:07;95944.41;;;5.24;100.00
17054;BME280;8643;48.824;11.422;2023-01-15T11:59:37;95953.81;;;5.18;100.00
17054;BME280;8643;48.824;11.422;2023-01-15T12:02:22;95977.94;;;4.93;100.00
17054;BME280;8643;48.824;11.422;2023-01-15T12:04:57;95980.66;;;4.85;100.00
17054;BME280;8643;48.824;11.422;2023-01-15T12:07:29;96003.16;;;4.76;100.00
17054;BME280;8643;48.824;11.422;2023-01-15T12:10:20;95997.09;;;4.80;100.00
17054;BME280;8643;48.824;11.422;2023-01-15T12:13:29;96001.69;;;4.79;100.00
17054;BME280;8643;48.824;11.422;2023-01-15T12:16:12;95995.31;;;4.75;100.00
17054;BME280;8643;48.824;11.422;2023-01-15T12:18:57;95973.81;;;4.87;100.00
17054;BME280;8643;48.824;11.422;2023-01-15T12:21:47;95977.00;;;4.98;100.00
17054;BME280;8643;48.824;11.422;2023-01-15T12:24:54;95970.59;;;4.85;100.00
17054;BME280;8643;48.824;11.422;2023-01-15T12:27:47;96019.41;;;4.76;100.00
17054;BME280;8643;48.824;11.422;2023-01-15T12:30:28;96039.19;;;4.77;100.00
17054;BME280;8643;48.824;11.422;2023-01-15T12:33:17;96049.88;;;4.65;100.00
17054;BME280;8643;48.824;11.422;2023-01-15T12:35:56;96058.63;;;4.62;100.00
17054;BME280;8643;48.824;11.422;2023-01-15T12:38:36;96053.63;;;4.46;100.00
17054;BME280;8643;48.824;11.422;2023-01-15T12:41:13;96065.19;;;4.20;100.00
17054;BME280;8643;48.824;11.422;2023-01-15T12:43:45;96074.72;;;4.18;100.00
17054;BME280;8643;48.824;11.422;2023-01-15T12:46:33;96066.13;;;4.16;100.00
17054;BME280;8643;48.824;11.422;2023-01-15T12:49:18;96075.03;;;4.16;100.00
17054;BME280;8643;48.824;11.422;2023-01-15T12:51:52;96059.88;;;4.15;100.00
17054;BME280;8643;48.824;11.422;2023-01-15T12:54:27;96065.91;;;4.12;100.00
17054;BME280;8643;48.824;11.422;2023-01-15T12:57:04;96070.69;;;4.07;100.00
17054;BME280;8643;48.824;11.422;2023-01-15T12:59:40;96075.38;;;3.92;100.00
17054;BME280;8643;48.824;11.422;2023-01-15T13:02:20;96081.38;;;3.80;100.00
17054;BME280;8643;48.824;11.422;2023-01-15T13:04:53;96081.22;;;3.85;100.00
17054;BME280;8643;48.824;11.422;2023-01-15T13:07:31;96088.44;;;3.90;100.00
17054;BME280;8643;48.824;11.422;2023-01-15T13:10:05;96096.38;;;3.87;100.00
17054;BME280;8643;48.824;11.422;2023-01-15T13:12:36;96104.50;;;3.87;100.00
17054;BME280;8643;48.824;11.422;2023-01-15T13:15:05;96109.09;;;3.86;100.00
17054;BME280;8643;48.824;11.422;2023-01-15T13:17:41;96110.91;;;3.91;100.00
17054;BME280;8643;48.824;11.422;2023-01-15T13:20:32;96104.88;;;3.94;100.00
17054;BME280;8643;48.824;11.422;2023-01-15T13:23:08;96105.13;;;3.83;100.00
17054;BME280;8643;48.824;11.422;2023-01-15T13:26:05;96106.69;;;3.84;100.00
17054;BME280;8643;48.824;11.422;2023-01-15T13:29:00;96111.75;;;3.77;100.00
17054;BME280;8643;48.824;11.422;2023-01-15T13:31:53;96130.09;;;3.80;100.00
17054;BME280;8643;48.824;11.422;2023-01-15T13:34:35;96134.97;;;3.70;100.00
17054;BME280;8643;48.824;11.422;2023-01-15T13:37:15;96144.88;;;3.74;100.00
17054;BME280;8643;48.824;11.422;2023-01-15T13:39:48;96154.13;;;3.73;100.00